createdAt,value
2022-10-04T00:00:26.295Z,32.35
2022-10-04T00:03:19.523Z,27.30
2022-10-04T00:05:51.636Z,34.67
2022-10-04T00:08:31.558Z,27.58
2022-10-04T00:11:07.055Z,22.05
2022-10-04T00:13:38.338Z,26.35
2022-10-04T00:16:07.140Z,26.02
2022-10-04T00:18:41.513Z,24.98
2022-10-04T00:25:10.452Z,31.23
2022-10-04T00:27:40.155Z,33.30
2022-10-04T00:30:23.607Z,37.67
2022-10-04T00:35:50.508Z,28.65
2022-10-04T00:38:27.999Z,25.08
2022-10-04T00:41:04.206Z,15.75
2022-10-04T00:43:59.673Z,22.52
2022-10-04T00:46:30.636Z,23.08
2022-10-04T00:49:03.429Z,31.63
2022-10-04T00:51:44.739Z,20.33
2022-10-04T00:54:24.364Z,21.83
2022-10-04T00:57:17.801Z,25.88
2022-10-04T00:59:59.060Z,20.55
2022-10-04T01:02:58.713Z,28.15
2022-10-04T01:05:40.842Z,22.45
2022-10-04T01:11:30.777Z,25.83
2022-10-04T01:14:06.607Z,26.77
2022-10-04T01:16:53.925Z,23.73
2022-10-04T01:19:25.036Z,19.77
2022-10-04T01:22:10.835Z,18.92
2022-10-04T01:24:42.139Z,22.85
2022-10-04T01:27:37.907Z,16.75
2022-10-04T01:30:10.042Z,13.65
2022-10-04T01:32:39.701Z,16.00
2022-10-04T01:35:27.264Z,13.73
2022-10-04T01:37:56.059Z,12.23
2022-10-04T01:40:24.328Z,14.55
2022-10-04T01:43:14.778Z,18.55
2022-10-04T01:45:54.308Z,15.68
2022-10-04T01:48:27.665Z,11.25
2022-10-04T01:51:38.037Z,12.55
2022-10-04T01:54:11.946Z,9.05
2022-10-04T01:59:40.638Z,17.48
2022-10-04T02:02:29.555Z,11.50
2022-10-04T02:05:00.184Z,14.20
2022-10-04T02:07:31.701Z,9.48
2022-10-04T02:12:55.035Z,13.80
2022-10-04T02:15:28.419Z,10.68
2022-10-04T02:17:58.174Z,14.18
2022-10-04T02:20:28.306Z,10.18
2022-10-04T02:22:59.700Z,6.85
2022-10-04T02:25:27.908Z,11.38
2022-10-04T02:27:57.208Z,10.95
2022-10-04T02:30:25.888Z,7.13
2022-10-04T02:33:00.929Z,6.90
2022-10-04T02:36:04.151Z,7.68
2022-10-04T02:38:37.619Z,5.07
2022-10-04T02:41:32.049Z,6.60
2022-10-04T02:44:10.696Z,10.35
2022-10-04T02:46:54.984Z,12.82
2022-10-04T02:49:32.308Z,12.48
2022-10-04T02:52:03.825Z,10.85
2022-10-04T02:55:03.795Z,11.65
2022-10-04T02:57:52.714Z,9.07
2022-10-04T03:00:27.561Z,10.63
2022-10-04T03:03:19.857Z,13.90
2022-10-04T03:06:16.246Z,8.25
2022-10-04T03:08:44.234Z,12.48
2022-10-04T03:11:16.328Z,11.32
2022-10-04T03:13:48.721Z,11.68
2022-10-04T03:19:02.953Z,9.10
2022-10-04T03:21:33.440Z,9.57
2022-10-04T03:24:04.042Z,7.50
2022-10-04T03:26:45.813Z,7.03
2022-10-04T03:29:16.109Z,13.02
2022-10-04T03:31:50.736Z,19.08
2022-10-04T03:34:25.131Z,16.60
2022-10-04T03:36:59.051Z,15.15
2022-10-04T03:39:33.890Z,14.00
2022-10-04T03:42:08.131Z,15.07
2022-10-04T03:44:36.561Z,10.68
2022-10-04T03:47:11.430Z,10.75
2022-10-04T03:50:00.244Z,10.25
2022-10-04T03:52:33.336Z,4.50
2022-10-04T03:55:06.277Z,7.65
2022-10-04T03:57:37.343Z,5.93
2022-10-04T04:00:07.333Z,6.65
2022-10-04T04:02:52.686Z,7.60
2022-10-04T04:05:29.666Z,10.02
2022-10-04T04:08:21.894Z,8.50
2022-10-04T04:11:15.577Z,3.90
2022-10-04T04:14:06.812Z,8.02
2022-10-04T04:16:55.408Z,11.82
2022-10-04T04:19:25.689Z,11.73
2022-10-04T04:21:55.988Z,12.02
2022-10-04T04:24:44.721Z,16.75
2022-10-04T04:27:16.644Z,8.52
2022-10-04T04:32:42.079Z,12.13
2022-10-04T04:35:23.802Z,9.00
2022-10-04T04:38:23.485Z,11.13
2022-10-04T04:40:56.406Z,11.40
2022-10-04T04:43:28.219Z,10.85
2022-10-04T04:46:22.282Z,10.07
2022-10-04T04:48:48.842Z,5.53
2022-10-04T04:51:24.615Z,3.65
2022-10-04T04:53:54.344Z,6.53
2022-10-04T04:56:28.501Z,9.55
2022-10-04T04:59:00.218Z,10.25
2022-10-04T05:01:46.610Z,5.22
2022-10-04T05:04:14.616Z,10.00
2022-10-04T05:06:49.288Z,10.90
2022-10-04T05:09:32.594Z,7.65
2022-10-04T05:12:19.670Z,8.30
2022-10-04T05:15:11.135Z,5.38
2022-10-04T05:17:39.147Z,11.27
2022-10-04T05:20:07.669Z,6.22
2022-10-04T05:22:35.892Z,11.38
2022-10-04T05:25:13.578Z,8.38
2022-10-04T05:27:45.121Z,10.63
2022-10-04T05:36:04.418Z,12.40
2022-10-04T05:41:23.692Z,15.80
2022-10-04T05:43:52.082Z,24.23
2022-10-04T05:46:30.638Z,16.08
2022-10-04T05:49:08.885Z,13.75
2022-10-04T05:51:57.046Z,11.20
2022-10-04T05:54:28.017Z,13.10
2022-10-04T05:57:41.057Z,12.27
2022-10-04T06:00:17.006Z,8.05
2022-10-04T06:03:21.664Z,10.27
2022-10-04T06:05:54.836Z,14.75
2022-10-04T06:08:44.519Z,11.00
2022-10-04T06:11:24.296Z,6.30
2022-10-04T06:14:21.230Z,9.30
2022-10-04T06:17:38.603Z,10.02
2022-10-04T06:20:15.233Z,10.40
2022-10-04T06:23:06.170Z,11.93
2022-10-04T06:26:18.833Z,12.30
2022-10-04T06:28:55.050Z,13.15
2022-10-04T06:31:24.773Z,10.95
2022-10-04T06:34:17.966Z,18.58
2022-10-04T06:37:39.717Z,15.73
2022-10-04T06:40:41.038Z,12.88
2022-10-04T06:43:46.603Z,17.52
2022-10-04T06:46:34.137Z,19.02
2022-10-04T06:49:07.945Z,17.23
2022-10-04T06:51:41.013Z,18.98
2022-10-04T06:54:32.259Z,17.92
2022-10-04T06:57:15.046Z,16.83
2022-10-04T07:00:25.765Z,15.90
2022-10-04T07:03:01.918Z,15.02
2022-10-04T07:05:56.243Z,7.20
2022-10-04T07:08:48.802Z,10.63
2022-10-04T07:11:22.459Z,11.45
2022-10-04T07:14:05.288Z,11.00
2022-10-04T07:16:43.470Z,7.80
2022-10-04T07:19:39.053Z,14.23
2022-10-04T07:22:06.869Z,16.45
2022-10-04T07:25:09.789Z,13.80
2022-10-04T07:28:15.384Z,11.65
2022-10-04T07:31:28.870Z,15.07
2022-10-04T07:34:26.076Z,16.50
2022-10-04T07:37:10.797Z,16.50
2022-10-04T07:39:50.827Z,18.27
2022-10-04T07:42:43.160Z,9.90
2022-10-04T07:45:15.538Z,10.02
2022-10-04T07:47:44.179Z,13.50
2022-10-04T07:50:32.571Z,5.93
2022-10-04T07:53:13.308Z,7.72
2022-10-04T07:55:50.307Z,11.57
2022-10-04T07:58:40.075Z,8.63
2022-10-04T08:01:31.488Z,11.73
2022-10-04T08:06:45.731Z,13.60
2022-10-04T08:09:32.618Z,10.77
2022-10-04T08:12:12.559Z,9.45
2022-10-04T08:14:54.700Z,16.23
2022-10-04T08:17:32.487Z,8.13
2022-10-04T08:20:57.662Z,17.42
2022-10-04T08:23:32.620Z,10.98
2022-10-04T08:26:17.843Z,10.90
2022-10-04T08:29:33.193Z,16.00
2022-10-04T08:32:05.716Z,14.68
2022-10-04T08:34:42.513Z,7.03
2022-10-04T08:37:32.626Z,11.00
2022-10-04T08:40:33.486Z,11.48
2022-10-04T08:43:34.357Z,9.52
2022-10-04T08:46:41.417Z,10.80
2022-10-04T08:49:47.260Z,9.50
2022-10-04T08:52:44.671Z,20.55
2022-10-04T08:55:45.313Z,16.45
2022-10-04T08:58:34.448Z,12.23
2022-10-04T09:01:08.430Z,12.68
2022-10-04T09:04:27.486Z,15.77
2022-10-04T09:09:35.332Z,16.73
2022-10-04T09:12:20.558Z,21.02
2022-10-04T09:15:37.536Z,13.30
2022-10-04T09:18:42.977Z,24.50
2022-10-04T09:21:14.458Z,15.10
2022-10-04T09:24:13.144Z,26.17
2022-10-04T09:27:05.286Z,24.70
2022-10-04T09:29:46.754Z,20.00
2022-10-04T09:32:30.456Z,19.45
2022-10-04T09:35:16.963Z,22.85
2022-10-04T09:38:04.231Z,30.17
2022-10-04T09:40:51.025Z,18.25
2022-10-04T09:43:55.516Z,15.82
2022-10-04T09:46:41.740Z,25.45
2022-10-04T09:49:38.134Z,15.57
2022-10-04T09:52:13.350Z,18.20
2022-10-04T09:54:57.048Z,16.92
2022-10-04T09:57:50.272Z,23.52
2022-10-04T10:00:24.374Z,28.58
2022-10-04T10:03:17.719Z,19.55
2022-10-04T10:06:02.000Z,35.47
2022-10-04T10:08:45.229Z,29.63
2022-10-04T10:11:50.327Z,28.83
2022-10-04T10:14:45.893Z,34.80
2022-10-04T10:17:45.394Z,30.63
2022-10-04T10:20:45.684Z,30.15
2022-10-04T10:23:22.718Z,30.02
2022-10-04T10:26:09.127Z,25.98
2022-10-04T10:28:37.104Z,33.78
2022-10-04T10:31:47.020Z,23.13
2022-10-04T10:34:46.918Z,22.77
2022-10-04T10:37:26.521Z,29.42
2022-10-04T10:40:04.499Z,30.23
2022-10-04T10:42:38.686Z,31.27
2022-10-04T10:45:47.877Z,21.40
2022-10-04T10:48:19.606Z,21.70
2022-10-04T10:51:15.489Z,30.50
2022-10-04T10:54:07.482Z,45.78
2022-10-04T10:56:59.765Z,38.58
2022-10-04T11:00:01.552Z,53.65
2022-10-04T11:02:51.278Z,48.08
2022-10-04T11:05:25.185Z,48.80
2022-10-04T11:08:02.065Z,47.97
2022-10-04T11:11:00.227Z,44.55
2022-10-04T11:13:47.957Z,60.50
2022-10-04T11:16:32.244Z,57.88
2022-10-04T11:19:33.300Z,50.75
2022-10-04T11:22:07.657Z,41.40
2022-10-04T11:25:06.007Z,49.67
2022-10-04T11:27:47.783Z,44.05
2022-10-04T11:30:26.808Z,44.55
2022-10-04T11:33:10.253Z,40.90
2022-10-04T11:36:15.793Z,53.38
2022-10-04T11:39:17.337Z,44.47
2022-10-04T11:41:53.561Z,44.72
2022-10-04T11:44:33.469Z,52.15
2022-10-04T11:47:10.514Z,51.53
2022-10-04T11:49:56.889Z,56.00
2022-10-04T11:53:20.281Z,61.20
2022-10-04T11:55:57.555Z,53.97
2022-10-04T11:58:58.847Z,64.97
2022-10-04T12:02:00.278Z,79.47
2022-10-04T12:04:54.056Z,82.65
2022-10-04T12:07:34.508Z,91.35
2022-10-04T12:10:30.969Z,88.38
2022-10-04T12:13:19.217Z,99.15
2022-10-04T12:16:05.066Z,81.20
2022-10-04T12:19:21.236Z,83.40
2022-10-04T12:22:19.666Z,63.03
2022-10-04T12:28:14.144Z,86.25
2022-10-04T12:31:04.902Z,97.50
2022-10-04T12:33:54.992Z,81.18
2022-10-04T12:37:00.083Z,80.20
2022-10-04T12:39:49.515Z,79.70
2022-10-04T12:42:32.405Z,77.30
2022-10-04T12:45:28.294Z,69.18
2022-10-04T12:48:02.105Z,81.20
2022-10-04T12:50:56.012Z,78.85
2022-10-04T12:53:46.824Z,69.80
2022-10-04T12:56:37.545Z,74.75
2022-10-04T12:59:28.500Z,68.47
2022-10-04T13:02:05.738Z,70.70
2022-10-04T13:04:48.086Z,67.55
2022-10-04T13:08:12.318Z,77.03
2022-10-04T13:11:17.966Z,65.15
2022-10-04T13:14:13.884Z,66.90
2022-10-04T13:20:33.742Z,61.83
2022-10-04T13:23:25.697Z,62.47
2022-10-04T13:29:04.715Z,56.53
2022-10-04T13:32:40.333Z,62.70
2022-10-04T13:35:36.648Z,60.20
2022-10-04T13:38:37.231Z,56.88
2022-10-04T13:41:15.735Z,62.30
2022-10-04T13:47:18.080Z,77.47
2022-10-04T13:50:22.787Z,87.45
2022-10-04T13:53:12.207Z,73.55
2022-10-04T13:56:12.541Z,69.60
2022-10-04T13:59:12.576Z,83.53
2022-10-04T14:02:18.111Z,81.20
2022-10-04T14:05:23.456Z,66.65
2022-10-04T14:08:04.699Z,76.68
2022-10-04T14:10:56.012Z,74.05
2022-10-04T14:14:00.645Z,64.18
2022-10-04T14:16:50.384Z,69.28
2022-10-04T14:19:36.938Z,61.95
2022-10-04T14:22:36.684Z,63.97
2022-10-04T14:25:30.033Z,59.67
2022-10-04T14:28:04.137Z,64.00
2022-10-04T14:30:48.176Z,67.72
2022-10-04T14:33:16.272Z,60.08
2022-10-04T14:35:58.579Z,58.25
2022-10-04T14:38:39.068Z,69.72
2022-10-04T14:41:50.969Z,82.05
2022-10-04T14:44:56.897Z,81.50
2022-10-04T14:47:49.317Z,88.97
2022-10-04T14:50:58.058Z,89.10
2022-10-04T14:53:37.491Z,66.10
2022-10-04T14:56:28.100Z,80.05
2022-10-04T14:59:14.363Z,70.75
2022-10-04T15:02:11.788Z,68.03
2022-10-04T15:04:54.957Z,73.00
2022-10-04T15:10:07.760Z,72.35
2022-10-04T15:13:12.666Z,70.00
2022-10-04T15:16:13.667Z,60.15
2022-10-04T15:19:03.949Z,66.80
2022-10-04T15:21:50.167Z,73.22
2022-10-04T15:24:24.434Z,76.90
2022-10-04T15:27:30.033Z,61.95
2022-10-04T15:30:13.472Z,69.07
2022-10-04T15:33:07.511Z,74.05
2022-10-04T15:35:50.354Z,67.97
2022-10-04T15:38:32.926Z,75.35
2022-10-04T15:41:27.629Z,81.10
2022-10-04T15:44:12.092Z,66.72
2022-10-04T15:46:53.069Z,82.93
2022-10-04T15:49:37.108Z,87.25
2022-10-04T15:52:25.915Z,76.15
2022-10-04T15:55:21.741Z,83.63
2022-10-04T15:58:15.677Z,78.28
2022-10-04T16:00:52.605Z,69.18
2022-10-04T16:03:46.498Z,87.53
2022-10-04T16:06:56.941Z,78.70
2022-10-04T16:09:54.773Z,84.95
2022-10-04T16:12:30.425Z,74.32
2022-10-04T16:15:13.044Z,72.75
2022-10-04T16:17:49.380Z,81.15
2022-10-04T16:20:25.935Z,72.72
2022-10-04T16:23:34.007Z,77.80
2022-10-04T16:26:16.244Z,66.18
2022-10-04T16:29:00.848Z,67.80
2022-10-04T16:31:40.271Z,73.80
2022-10-04T16:34:29.460Z,73.80
2022-10-04T16:40:02.501Z,61.30
2022-10-04T16:42:42.202Z,76.88
2022-10-04T16:45:10.090Z,71.70
2022-10-04T16:47:50.939Z,68.43
2022-10-04T16:51:00.965Z,80.53
2022-10-04T16:53:50.740Z,75.95
2022-10-04T16:56:24.478Z,75.70
2022-10-04T16:59:05.910Z,64.05
2022-10-04T17:02:04.621Z,71.07
2022-10-04T17:04:39.677Z,78.07
2022-10-04T17:07:12.509Z,76.50
2022-10-04T17:13:23.530Z,75.53
2022-10-04T17:16:12.265Z,64.90
2022-10-04T17:19:13.716Z,69.38
2022-10-04T17:22:11.337Z,67.15
2022-10-04T17:24:57.547Z,55.17
2022-10-04T17:27:57.518Z,62.67
2022-10-04T17:30:28.670Z,67.93
2022-10-04T17:33:17.491Z,74.63
2022-10-04T17:36:11.628Z,53.30
2022-10-04T17:39:03.814Z,72.18
2022-10-04T17:41:40.265Z,64.85
2022-10-04T17:44:37.743Z,75.20
2022-10-04T17:48:04.208Z,54.22
2022-10-04T17:51:20.973Z,66.53
2022-10-04T17:54:19.180Z,63.92
2022-10-04T17:57:11.003Z,72.75
2022-10-04T17:59:44.347Z,66.03
2022-10-04T18:02:18.141Z,68.97
2022-10-04T18:04:58.062Z,77.25
2022-10-04T18:07:37.498Z,71.05
2022-10-04T18:10:24.688Z,73.32
2022-10-04T18:13:21.907Z,66.85
2022-10-04T18:16:25.055Z,68.25
2022-10-04T18:18:53.334Z,83.03
2022-10-04T18:21:28.449Z,67.07
2022-10-04T18:24:17.925Z,61.60
2022-10-04T18:27:05.275Z,64.35
2022-10-04T18:29:42.366Z,64.32
2022-10-04T18:32:40.512Z,70.97
2022-10-04T18:35:26.896Z,58.08
2022-10-04T18:38:20.766Z,80.97
2022-10-04T18:40:59.262Z,77.22
2022-10-04T18:43:41.937Z,79.15
2022-10-04T18:46:23.542Z,70.50
2022-10-04T18:48:54.728Z,78.78
2022-10-04T18:51:30.083Z,65.35
2022-10-04T18:54:26.513Z,59.10
2022-10-04T18:57:26.957Z,70.50
2022-10-04T19:00:33.139Z,64.13
2022-10-04T19:03:36.536Z,57.53
2022-10-04T19:06:31.944Z,83.20
2022-10-04T19:09:18.933Z,72.35
2022-10-04T19:12:13.561Z,66.10
2022-10-04T19:14:53.985Z,60.45
2022-10-04T19:17:55.202Z,63.28
2022-10-04T19:23:31.665Z,63.03
2022-10-04T19:26:32.001Z,55.40
2022-10-04T19:29:26.899Z,71.28
2022-10-04T19:34:58.622Z,64.22
2022-10-04T19:37:34.627Z,68.40
2022-10-04T19:40:21.050Z,58.72
2022-10-04T19:43:10.679Z,57.67
2022-10-04T19:46:11.517Z,71.30
2022-10-04T19:48:50.274Z,59.00
2022-10-04T19:51:36.627Z,73.30
2022-10-04T19:54:16.362Z,61.17
2022-10-04T19:56:54.818Z,58.70
2022-10-04T19:59:33.645Z,58.17
2022-10-04T20:02:01.781Z,50.20
2022-10-04T20:04:35.452Z,58.33
2022-10-04T20:07:18.245Z,60.78
2022-10-04T20:10:16.505Z,55.90
2022-10-04T20:13:33.637Z,56.17
2022-10-04T20:16:01.733Z,68.68
2022-10-04T20:21:26.566Z,48.58
2022-10-04T20:23:57.173Z,49.88
2022-10-04T20:26:58.904Z,43.17
2022-10-04T20:29:52.010Z,53.70
2022-10-04T20:32:37.104Z,45.80
2022-10-04T20:35:16.360Z,48.53
2022-10-04T20:37:44.287Z,42.38
2022-10-04T20:40:35.134Z,55.40
2022-10-04T20:43:15.421Z,52.40
2022-10-04T20:45:55.193Z,41.67
2022-10-04T20:48:28.687Z,45.88
2022-10-04T20:50:56.848Z,42.22
2022-10-04T20:53:29.742Z,28.70
2022-10-04T20:56:20.505Z,40.05
2022-10-04T20:58:54.084Z,35.67
2022-10-04T21:01:36.598Z,27.00
2022-10-04T21:04:32.991Z,26.50
2022-10-04T21:07:06.151Z,26.48
2022-10-04T21:09:55.427Z,27.63
2022-10-04T21:12:39.085Z,26.25
2022-10-04T21:15:16.230Z,29.83
2022-10-04T21:18:00.292Z,25.85
2022-10-04T21:20:46.202Z,30.42
2022-10-04T21:23:35.132Z,23.27
2022-10-04T21:26:31.263Z,27.23
2022-10-04T21:28:59.990Z,25.88
2022-10-04T21:31:28.311Z,29.30
2022-10-04T21:33:56.555Z,38.17
2022-10-04T21:39:10.228Z,34.58
2022-10-04T21:42:16.095Z,30.58
2022-10-04T21:44:44.276Z,30.55
2022-10-04T21:47:31.145Z,45.20
2022-10-04T21:49:59.304Z,44.88
2022-10-04T21:52:27.355Z,66.00
2022-10-04T21:54:55.436Z,60.35
2022-10-04T21:57:24.268Z,64.95
2022-10-04T22:00:11.771Z,76.80
2022-10-04T22:02:42.626Z,49.13
2022-10-04T22:05:10.690Z,62.13
2022-10-04T22:07:38.890Z,66.43
2022-10-04T22:10:07.529Z,56.33
2022-10-04T22:12:35.590Z,61.50
2022-10-04T22:15:05.405Z,53.28
2022-10-04T22:17:33.661Z,53.30
2022-10-04T22:20:02.017Z,49.25
2022-10-04T22:22:33.439Z,58.83
2022-10-04T22:25:03.319Z,50.63
2022-10-04T22:27:31.554Z,57.80
2022-10-04T22:30:00.297Z,56.63
2022-10-04T22:32:48.050Z,60.28
2022-10-04T22:35:19.959Z,61.85
2022-10-04T22:37:49.154Z,62.60
2022-10-04T22:40:36.824Z,56.25
2022-10-04T22:43:04.933Z,66.75
2022-10-04T22:45:51.832Z,46.95
2022-10-04T22:48:20.090Z,56.42
2022-10-04T22:50:50.279Z,50.10
2022-10-04T22:53:39.466Z,32.67
2022-10-04T22:56:07.746Z,50.22
2022-10-04T22:58:35.906Z,44.38
2022-10-04T23:01:09.921Z,51.97
2022-10-04T23:03:56.608Z,40.72
2022-10-04T23:06:24.782Z,49.95
2022-10-04T23:08:52.921Z,50.47
2022-10-04T23:11:39.699Z,37.35
2022-10-04T23:14:07.840Z,40.08
2022-10-04T23:16:36.859Z,39.75
2022-10-04T23:19:19.106Z,28.05
2022-10-04T23:21:49.372Z,33.35
2022-10-04T23:24:20.545Z,33.10
2022-10-04T23:26:57.782Z,35.22
2022-10-04T23:29:30.637Z,45.15
2022-10-04T23:31:58.872Z,50.65
2022-10-04T23:34:30.995Z,42.00
2022-10-04T23:36:59.200Z,59.42
2022-10-04T23:39:49.507Z,58.75
2022-10-04T23:43:15.582Z,53.25
2022-10-04T23:45:44.801Z,51.00
2022-10-04T23:48:21.392Z,57.97
2022-10-04T23:50:50.274Z,56.33
2022-10-04T23:53:30.757Z,55.08
2022-10-04T23:56:04.588Z,59.05
2022-10-04T23:58:40.521Z,53.58
